Time;durP1;ratioP1;P1;durP2;ratioP2;P2;SDS_P1;SDS_P2;PMS_P1;PMS_P2;Temp;Humidity;BMP_temperature;BMP_pressure;BME280_temperature;BME280_humidity;BME280_pressure;Samples;Min_cycle;Max_cycle;Signal;HPM_P1;HPM_P2
2022/10/04 00:01:11;;;;;;;9.00;7.27;;;9.90;85.90;;;;;;4971384;28;20476;-90
2022/10/04 00:03:48;;;;;;;8.03;6.13;;;9.90;85.70;;;;;;4957384;28;20470;-89
2022/10/04 00:06:24;;;;;;;11.50;6.80;;;10.00;85.30;;;;;;4957183;28;20469;-89
2022/10/04 00:09:04;;;;;;;11.07;7.10;;;9.90;85.60;;;;;;4971431;28;20508;-89
2022/10/04 00:11:34;;;;;;;10.00;7.10;;;9.90;85.60;;;;;;4950781;28;20528;-89
2022/10/04 00:14:08;;;;;;;10.80;6.03;;;9.80;85.80;;;;;;4956518;28;20512;-89
2022/10/04 00:16:38;;;;;;;9.87;6.97;;;9.80;86.10;;;;;;4966011;28;20461;-89
2022/10/04 00:19:14;;;;;;;9.90;7.27;;;9.80;86.30;;;;;;4956958;28;20474;-89
2022/10/04 00:21:54;;;;;;;11.73;8.17;;;9.70;86.30;;;;;;4967863;28;20477;-89
2022/10/04 00:24:34;;;;;;;7.47;6.50;;;9.70;86.50;;;;;;4950242;28;20526;-89
2022/10/04 00:27:21;;;;;;;10.50;6.97;;;9.70;86.60;;;;;;4954136;28;20520;-89
2022/10/04 00:30:00;;;;;;;7.37;6.10;;;9.70;86.60;;;;;;4970457;28;20462;-89
2022/10/04 00:32:30;;;;;;;7.93;6.37;;;9.80;86.30;;;;;;4973002;28;21136;-89
2022/10/04 00:34:59;;;;;;;8.83;7.20;;;9.80;86.00;;;;;;4956932;28;21026;-89
2022/10/04 00:37:26;;;;;;;8.40;6.70;;;9.80;85.90;;;;;;4956380;28;20502;-89
2022/10/04 00:40:15;;;;;;;10.00;6.60;;;9.70;86.50;;;;;;4969177;28;20462;-89
2022/10/04 00:43:07;;;;;;;9.90;7.07;;;9.70;86.40;;;;;;4971761;28;20497;-89
2022/10/04 00:45:53;;;;;;;11.73;7.80;;;9.70;86.20;;;;;;4969616;28;20536;-89
2022/10/04 00:48:35;;;;;;;9.43;6.47;;;9.70;85.90;;;;;;4972750;28;20476;-89
2022/10/04 00:51:16;;;;;;;14.10;7.10;;;9.50;86.50;;;;;;4970200;28;20556;-89
2022/10/04 00:54:16;;;;;;;10.93;6.50;;;9.60;86.20;;;;;;4952861;28;20520;-90
2022/10/04 00:56:50;;;;;;;10.17;6.50;;;9.60;86.00;;;;;;4954719;28;20466;-90
2022/10/04 00:59:35;;;;;;;9.57;6.93;;;9.40;86.10;;;;;;4971780;28;20481;-89
2022/10/04 01:02:55;;;;;;;10.33;7.57;;;9.40;86.90;;;;;;4956328;28;20466;-90
2022/10/04 01:05:30;;;;;;;6.77;6.07;;;9.50;86.60;;;;;;4933422;29;20476;-89
2022/10/04 01:08:02;;;;;;;9.87;6.87;;;9.50;86.30;;;;;;4932193;29;20950;-89
2022/10/04 01:10:35;;;;;;;10.67;7.40;;;9.40;86.40;;;;;;4937746;28;20474;-89
2022/10/04 01:13:20;;;;;;;10.57;7.07;;;9.40;86.30;;;;;;4953501;28;20487;-89
2022/10/04 01:16:27;;;;;;;10.47;6.97;;;9.40;86.20;;;;;;4969717;28;20448;-89
2022/10/04 01:18:55;;;;;;;9.70;6.57;;;9.40;86.10;;;;;;4942613;28;20466;-89
2022/10/04 01:21:22;;;;;;;10.80;7.13;;;9.40;86.00;;;;;;4968102;28;20469;-89
2022/10/04 01:24:14;;;;;;;10.03;6.43;;;9.40;86.10;;;;;;4956620;28;20923;-89
2022/10/04 01:26:43;;;;;;;8.80;6.83;;;9.40;86.10;;;;;;4949333;28;20517;-89
2022/10/04 01:29:13;;;;;;;10.00;7.33;;;9.30;86.40;;;;;;4953969;28;20497;-89
2022/10/04 01:31:47;;;;;;;9.93;8.43;;;9.30;86.70;;;;;;4971515;28;20572;-89
2022/10/04 01:34:16;;;;;;;11.83;8.30;;;9.40;86.50;;;;;;4954505;28;20470;-89
2022/10/04 01:36:46;;;;;;;10.33;7.60;;;9.30;86.80;;;;;;4956006;28;20470;-89
2022/10/04 01:39:14;;;;;;;11.20;7.37;;;9.30;86.90;;;;;;4954717;28;20469;-89
2022/10/04 01:42:03;;;;;;;8.70;7.10;;;9.20;86.90;;;;;;4970553;28;20474;-89
2022/10/04 01:44:32;;;;;;;8.17;6.80;;;9.30;86.70;;;;;;4969893;28;20470;-89
2022/10/04 01:47:07;;;;;;;8.93;7.20;;;9.30;86.20;;;;;;4957836;28;20568;-89
2022/10/04 01:49:37;;;;;;;11.60;7.00;;;9.30;86.20;;;;;;4955859;28;20524;-89
2022/10/04 01:52:25;;;;;;;10.60;7.07;;;9.30;86.10;;;;;;4955326;28;20493;-89
2022/10/04 01:55:03;;;;;;;10.53;7.10;;;9.30;86.30;;;;;;4952992;28;20513;-90
2022/10/04 01:57:44;;;;;;;15.40;7.47;;;9.30;86.70;;;;;;4952577;28;20454;-90
2022/10/04 02:00:12;;;;;;;12.50;8.13;;;9.20;86.50;;;;;;4968662;28;20458;-90
2022/10/04 02:02:45;;;;;;;9.93;7.23;;;9.00;86.20;;;;;;4950482;28;20462;-90
2022/10/04 02:05:16;;;;;;;11.37;7.70;;;9.00;87.10;;;;;;4971810;28;20794;-89
2022/10/04 02:07:45;;;;;;;11.07;8.87;;;9.10;87.20;;;;;;4956645;28;20480;-90
2022/10/04 02:10:19;;;;;;;10.10;7.87;;;9.10;86.70;;;;;;4958750;28;20466;-89
2022/10/04 02:12:49;;;;;;;10.40;7.63;;;9.10;87.00;;;;;;4975102;28;20482;-89
2022/10/04 02:15:19;;;;;;;9.97;6.60;;;9.10;86.70;;;;;;4980906;28;20434;-89
2022/10/04 02:17:47;;;;;;;9.30;7.80;;;9.20;86.30;;;;;;4977791;28;20470;-89
2022/10/04 02:20:20;;;;;;;8.00;6.27;;;9.20;86.10;;;;;;4976578;28;20470;-89
2022/10/04 02:22:53;;;;;;;9.20;6.60;;;9.20;85.90;;;;;;4980605;28;20473;-90
2022/10/04 02:25:21;;;;;;;9.73;6.13;;;9.20;85.70;;;;;;4979278;28;20475;-90
2022/10/04 02:27:52;;;;;;;8.53;7.00;;;9.20;85.90;;;;;;4996591;28;20474;-89
2022/10/04 02:30:19;;;;;;;11.17;7.30;;;9.10;85.80;;;;;;4977778;28;20538;-89
2022/10/04 02:32:59;;;;;;;10.40;7.73;;;8.90;86.60;;;;;;4956079;28;20521;-90
2022/10/04 02:35:35;;;;;;;8.90;7.33;;;8.90;86.90;;;;;;4971217;28;20595;-87
2022/10/04 02:38:06;;;;;;;10.00;7.83;;;9.00;86.70;;;;;;4953030;28;20594;-87
2022/10/04 02:40:53;;;;;;;9.87;7.87;;;9.10;86.50;;;;;;4959057;28;20976;-87
2022/10/04 02:43:26;;;;;;;9.13;7.07;;;9.10;86.50;;;;;;4971392;28;20462;-87
2022/10/04 02:46:12;;;;;;;10.70;6.43;;;9.10;86.50;;;;;;4970902;28;20470;-87
2022/10/04 02:48:47;;;;;;;9.20;6.03;;;9.20;86.40;;;;;;4971555;28;20955;-87
2022/10/04 02:51:24;;;;;;;9.30;6.83;;;9.20;86.20;;;;;;4967038;28;20484;-86
2022/10/04 02:54:03;;;;;;;11.90;7.97;;;9.20;86.30;;;;;;4970656;28;20462;-87
2022/10/04 02:56:30;;;;;;;10.00;7.67;;;9.10;86.60;;;;;;4970050;28;20462;-87
2022/10/04 02:59:05;;;;;;;13.83;6.70;;;9.10;86.80;;;;;;4953270;28;20466;-87
2022/10/04 03:01:54;;;;;;;9.90;7.50;;;9.10;86.90;;;;;;4953212;28;20488;-87
2022/10/04 03:04:33;;;;;;;9.67;6.90;;;9.10;86.80;;;;;;4954083;28;20553;-87
2022/10/04 03:07:03;;;;;;;12.10;6.83;;;9.10;86.70;;;;;;4957147;28;20462;-87
2022/10/04 03:09:31;;;;;;;10.53;7.13;;;9.00;87.40;;;;;;4970548;28;20469;-87
2022/10/04 03:11:58;;;;;;;10.00;7.70;;;9.00;87.00;;;;;;4968792;28;20983;-87
2022/10/04 03:14:27;;;;;;;7.50;6.37;;;9.10;86.30;;;;;;4970380;28;20470;-87
2022/10/04 03:16:56;;;;;;;9.43;6.53;;;9.10;86.20;;;;;;4966660;28;20516;-86
2022/10/04 03:19:26;;;;;;;10.80;7.47;;;9.00;86.80;;;;;;4956252;28;20470;-87
2022/10/04 03:21:56;;;;;;;9.50;7.50;;;8.90;86.60;;;;;;4967125;28;21347;-87
2022/10/04 03:24:33;;;;;;;13.27;9.63;;;8.90;87.50;;;;;;4969889;28;20470;-87
2022/10/04 03:27:05;;;;;;;9.07;7.20;;;8.90;87.40;;;;;;4972900;28;20520;-87
2022/10/04 03:29:33;;;;;;;9.20;7.40;;;8.90;87.10;;;;;;4955277;28;20461;-87
2022/10/04 03:32:03;;;;;;;13.70;6.80;;;8.90;87.20;;;;;;4952257;28;20513;-87
2022/10/04 03:34:36;;;;;;;9.47;7.10;;;8.90;87.30;;;;;;4956902;28;20470;-87
2022/10/04 03:37:12;;;;;;;8.53;6.70;;;8.90;87.10;;;;;;4962454;28;20446;-87
2022/10/04 03:39:48;;;;;;;9.60;6.50;;;8.80;87.40;;;;;;4957647;28;20461;-87
2022/10/04 03:42:14;;;;;;;9.23;7.57;;;8.80;87.50;;;;;;4957352;28;20557;-87
2022/10/04 03:44:44;;;;;;;9.53;7.63;;;8.80;87.80;;;;;;4956707;28;20516;-87
2022/10/04 03:47:34;;;;;;;8.90;6.73;;;8.90;87.90;;;;;;4951927;28;20497;-87
2022/10/04 03:50:15;;;;;;;7.90;6.53;;;8.90;87.80;;;;;;4970365;28;20512;-88
2022/10/04 03:52:52;;;;;;;10.27;7.23;;;8.80;87.90;;;;;;4956850;28;20521;-87
2022/10/04 03:55:20;;;;;;;10.13;7.93;;;8.80;88.20;;;;;;4964945;28;20933;-87
2022/10/04 03:57:48;;;;;;;10.73;8.40;;;8.90;88.40;;;;;;4970053;28;20458;-87
2022/10/04 04:00:17;;;;;;;11.23;8.00;;;9.00;88.20;;;;;;4956499;28;20458;-86
2022/10/04 04:02:58;;;;;;;11.87;6.77;;;9.00;88.40;;;;;;4949911;28;20501;-87
2022/10/04 04:05:34;;;;;;;12.37;7.93;;;8.90;88.50;;;;;;4968486;28;20470;-87
2022/10/04 04:08:06;;;;;;;12.83;7.60;;;8.90;88.80;;;;;;4956539;28;20492;-87
2022/10/04 04:10:37;;;;;;;10.77;7.63;;;8.90;89.00;;;;;;4968372;28;20458;-87
2022/10/04 04:13:09;;;;;;;13.57;6.50;;;9.00;88.70;;;;;;4955445;28;20515;-87
2022/10/04 04:15:42;;;;;;;10.20;6.83;;;9.00;88.00;;;;;;4955348;28;20466;-87
2022/10/04 04:18:26;;;;;;;12.20;6.40;;;9.00;87.90;;;;;;4955329;28;20490;-87
2022/10/04 04:20:58;;;;;;;9.50;6.53;;;9.00;87.40;;;;;;4970752;28;20508;-87
2022/10/04 04:23:34;;;;;;;8.30;6.67;;;8.90;87.50;;;;;;4955310;28;20854;-87
2022/10/04 04:26:43;;;;;;;7.93;5.57;;;8.70;87.90;;;;;;4955906;28;20516;-87
2022/10/04 04:29:21;;;;;;;9.17;6.13;;;8.70;88.10;;;;;;4949440;28;20470;-87
2022/10/04 04:31:59;;;;;;;8.07;6.70;;;8.80;87.50;;;;;;4970842;28;21026;-87
2022/10/04 04:34:33;;;;;;;9.70;6.97;;;8.70;87.70;;;;;;4950448;28;20995;-86
2022/10/04 04:37:01;;;;;;;9.67;6.63;;;8.60;88.20;;;;;;4955608;28;20493;-87
2022/10/04 04:39:33;;;;;;;9.53;6.37;;;8.70;88.30;;;;;;4957108;28;20458;-87
2022/10/04 04:42:20;;;;;;;10.03;6.30;;;8.70;88.50;;;;;;4970307;28;20473;-86
2022/10/04 04:44:51;;;;;;;9.07;6.10;;;8.80;87.90;;;;;;4946449;28;20467;-87
2022/10/04 04:47:28;;;;;;;9.17;7.10;;;8.70;88.00;;;;;;4969081;28;20462;-87
2022/10/04 04:50:00;;;;;;;9.00;6.27;;;8.60;88.10;;;;;;4954328;28;20995;-87
2022/10/04 04:52:28;;;;;;;9.57;8.07;;;8.60;88.50;;;;;;4956078;28;21269;-87
2022/10/04 04:54:55;;;;;;;12.37;8.17;;;8.70;88.20;;;;;;4971940;28;20462;-87
2022/10/04 04:57:22;;;;;;;8.93;6.97;;;8.80;87.80;;;;;;4956407;28;20470;-87
2022/10/04 04:59:59;;;;;;;9.43;7.73;;;8.90;87.30;;;;;;4955883;28;21027;-87
2022/10/04 05:02:30;;;;;;;8.57;6.13;;;8.90;87.20;;;;;;4973998;28;20473;-86
2022/10/04 05:05:30;;;;;;;8.17;6.30;;;8.90;87.40;;;;;;4953963;28;21301;-87
2022/10/04 05:08:12;;;;;;;8.77;6.20;;;8.90;87.00;;;;;;4933778;28;20457;-87
2022/10/04 05:10:42;;;;;;;7.80;6.50;;;8.90;87.00;;;;;;4970805;28;20461;-87
2022/10/04 05:13:10;;;;;;;9.37;7.77;;;8.80;87.30;;;;;;4951152;28;20580;-87
2022/10/04 05:15:39;;;;;;;11.40;8.30;;;8.70;87.70;;;;;;4971155;28;20517;-87
2022/10/04 05:18:32;;;;;;;9.17;7.73;;;8.60;88.10;;;;;;4950286;28;20481;-87
2022/10/04 05:21:09;;;;;;;12.43;9.97;;;8.70;88.30;;;;;;4955379;28;20458;-87
2022/10/04 05:23:37;;;;;;;11.03;8.97;;;8.70;88.20;;;;;;4953318;28;20967;-87
2022/10/04 05:26:10;;;;;;;14.63;9.80;;;8.80;88.10;;;;;;4953519;28;20514;-87
2022/10/04 05:28:37;;;;;;;14.10;9.37;;;8.90;87.70;;;;;;4968057;28;20605;-87
2022/10/04 05:31:22;;;;;;;12.80;9.93;;;8.90;87.50;;;;;;4967153;28;20474;-87
2022/10/04 05:33:52;;;;;;;11.13;8.57;;;8.90;87.70;;;;;;4969516;28;20592;-87
2022/10/04 05:36:41;;;;;;;13.80;10.13;;;8.90;88.00;;;;;;4952569;28;20455;-87
2022/10/04 05:39:12;;;;;;;11.57;8.67;;;8.80;88.50;;;;;;4953975;28;20505;-87
2022/10/04 05:42:09;;;;;;;10.90;9.03;;;8.90;88.80;;;;;;4954226;28;20505;-87
2022/10/04 05:44:48;;;;;;;12.50;8.47;;;9.00;88.20;;;;;;4958770;28;21315;-87
2022/10/04 05:47:21;;;;;;;13.57;8.20;;;8.90;88.50;;;;;;4969800;28;20466;-87
2022/10/04 05:49:51;;;;;;;11.37;7.40;;;8.80;88.50;;;;;;4968798;28;20489;-87
2022/10/04 05:52:29;;;;;;;10.50;8.43;;;8.70;89.20;;;;;;4953309;28;20885;-87
2022/10/04 05:55:11;;;;;;;11.90;8.60;;;8.70;89.50;;;;;;4949709;28;20474;-87
2022/10/04 05:58:17;;;;;;;15.23;9.90;;;8.80;89.60;;;;;;4951144;28;20466;-87
2022/10/04 06:00:49;;;;;;;14.90;9.80;;;8.90;89.50;;;;;;4969320;28;20532;-86
2022/10/04 06:03:23;;;;;;;14.20;10.43;;;9.00;89.10;;;;;;4970110;28;20476;-87
2022/10/04 06:05:54;;;;;;;17.00;11.23;;;8.90;89.10;;;;;;4969322;28;20465;-87
2022/10/04 06:08:55;;;;;;;16.83;10.53;;;8.90;89.60;;;;;;4970478;28;20505;-87
2022/10/04 06:11:39;;;;;;;15.23;10.50;;;9.00;89.60;;;;;;4953106;28;20497;-87
2022/10/04 06:14:20;;;;;;;13.97;10.50;;;9.00;89.10;;;;;;4954177;28;20566;-87
2022/10/04 06:17:25;;;;;;;18.73;12.57;;;9.00;89.00;;;;;;4972760;28;20517;-87
2022/10/04 06:20:07;;;;;;;15.40;10.60;;;9.10;88.70;;;;;;4972438;28;20545;-87
2022/10/04 06:22:46;;;;;;;13.07;9.77;;;9.20;88.60;;;;;;4968266;28;20493;-87
2022/10/04 06:25:25;;;;;;;14.60;10.80;;;9.20;88.50;;;;;;4970010;28;20462;-87
2022/10/04 06:28:18;;;;;;;12.43;9.47;;;9.20;88.50;;;;;;4971845;28;20466;-87
2022/10/04 06:31:28;;;;;;;9.60;7.93;;;9.20;88.60;;;;;;4952734;28;20553;-86
2022/10/04 06:34:18;;;;;;;13.00;9.20;;;9.10;88.80;;;;;;4932431;28;20580;-87
2022/10/04 06:37:08;;;;;;;13.10;9.83;;;9.10;89.30;;;;;;4951866;28;20567;-86
2022/10/04 06:39:54;;;;;;;11.60;8.60;;;9.30;89.00;;;;;;4971609;28;20455;-87
2022/10/04 06:42:32;;;;;;;14.77;10.10;;;9.20;88.80;;;;;;4954599;28;20469;-86
2022/10/04 06:45:30;;;;;;;13.20;8.37;;;9.00;89.40;;;;;;4971530;28;20589;-87
2022/10/04 06:48:15;;;;;;;13.90;10.33;;;9.10;89.80;;;;;;4951291;28;21207;-86
2022/10/04 06:50:51;;;;;;;9.53;8.57;;;9.20;89.50;;;;;;4953826;28;20502;-86
2022/10/04 06:53:46;;;;;;;11.00;8.90;;;9.30;89.40;;;;;;4968287;28;20580;-86
2022/10/04 06:57:03;;;;;;;12.47;8.60;;;9.30;89.20;;;;;;4968732;28;20466;-87
2022/10/04 07:00:03;;;;;;;12.40;9.40;;;9.40;89.40;;;;;;4928400;28;20532;-87
2022/10/04 07:02:52;;;;;;;12.00;9.07;;;9.40;89.20;;;;;;4944671;28;20462;-86
2022/10/04 07:05:45;;;;;;;12.87;8.10;;;9.50;89.10;;;;;;4970006;28;20883;-87
2022/10/04 07:08:32;;;;;;;13.57;10.10;;;9.50;89.30;;;;;;4971392;28;20481;-87
2022/10/04 07:11:16;;;;;;;11.07;9.00;;;9.50;89.30;;;;;;4971973;28;20485;-86
2022/10/04 07:13:50;;;;;;;14.60;9.50;;;9.40;89.70;;;;;;4967875;28;20565;-87
2022/10/04 07:16:38;;;;;;;16.37;8.83;;;9.30;89.80;;;;;;4954269;28;20470;-87
2022/10/04 07:19:26;;;;;;;14.40;10.47;;;9.20;89.80;;;;;;4970478;28;20525;-87
2022/10/04 07:22:14;;;;;;;17.10;10.87;;;9.20;89.80;;;;;;4971433;28;20494;-87
2022/10/04 07:25:13;;;;;;;20.07;11.40;;;9.20;89.80;;;;;;4955935;28;20466;-86
2022/10/04 07:31:08;;;;;;;23.50;14.60;;;9.40;89.80;;;;;;4971429;28;20477;-86
2022/10/04 07:34:01;;;;;;;26.43;15.17;;;9.50;89.80;;;;;;4954237;28;20488;-86
2022/10/04 07:36:42;;;;;;;27.27;16.77;;;9.50;89.80;;;;;;4969324;28;20474;-87
2022/10/04 07:39:28;;;;;;;24.73;14.30;;;9.40;89.80;;;;;;4968406;28;20856;-87
2022/10/04 07:42:00;;;;;;;30.53;15.97;;;9.40;89.80;;;;;;4968381;28;20446;-86
2022/10/04 07:44:40;;;;;;;23.00;15.30;;;9.40;89.80;;;;;;4951983;28;21021;-87
2022/10/04 07:47:21;;;;;;;26.30;16.07;;;9.60;89.80;;;;;;4952901;28;20971;-87
2022/10/04 07:49:49;;;;;;;29.77;17.47;;;9.60;89.80;;;;;;4971500;28;20478;-87
2022/10/04 07:53:04;;;;;;;28.33;17.10;;;9.60;89.80;;;;;;4970597;28;20466;-87
2022/10/04 07:56:01;;;;;;;31.60;19.37;;;9.60;89.80;;;;;;4946273;28;20466;-87
2022/10/04 07:58:49;;;;;;;32.80;19.37;;;9.70;89.80;;;;;;4967579;28;20462;-87
2022/10/04 08:01:51;;;;;;;30.70;18.10;;;9.70;89.80;;;;;;4973712;28;20490;-87
2022/10/04 08:04:44;;;;;;;29.40;19.17;;;9.70;89.80;;;;;;4970850;28;20506;-86
2022/10/04 08:07:25;;;;;;;33.47;19.17;;;9.80;89.80;;;;;;4971528;28;20462;-86
2022/10/04 08:09:59;;;;;;;35.53;20.93;;;9.80;89.80;;;;;;4952841;28;20470;-87
2022/10/04 08:12:47;;;;;;;28.80;18.70;;;9.80;89.80;;;;;;4972101;28;20457;-87
2022/10/04 08:15:17;;;;;;;31.70;19.50;;;9.80;89.80;;;;;;4975711;28;20524;-87
2022/10/04 08:18:02;;;;;;;34.33;19.40;;;9.80;89.80;;;;;;4973053;28;20470;-86
2022/10/04 08:20:38;;;;;;;28.90;19.93;;;9.90;89.80;;;;;;4962425;28;20461;-87
2022/10/04 08:23:19;;;;;;;30.87;19.20;;;9.90;89.80;;;;;;4954383;28;20828;-87
2022/10/04 08:25:55;;;;;;;34.70;19.83;;;10.00;89.80;;;;;;4986341;28;20446;-87
2022/10/04 08:32:03;;;;;;;34.07;19.53;;;10.20;89.80;;;;;;4992776;28;20509;-87
2022/10/04 08:35:10;;;;;;;32.97;18.93;;;10.40;89.80;;;;;;4995570;28;20470;-86
2022/10/04 08:37:58;;;;;;;38.40;20.20;;;10.40;89.80;;;;;;4996211;28;20469;-87
2022/10/04 08:40:38;;;;;;;31.30;20.03;;;10.30;89.80;;;;;;4998308;28;20469;-86
2022/10/04 08:43:29;;;;;;;33.23;20.57;;;10.30;89.80;;;;;;4995009;28;20545;-87
2022/10/04 08:46:09;;;;;;;41.73;22.73;;;10.40;89.80;;;;;;4978377;28;20442;-86
2022/10/04 08:49:07;;;;;;;36.17;22.90;;;10.40;89.80;;;;;;4995471;28;20434;-87
2022/10/04 08:51:45;;;;;;;47.83;21.73;;;10.40;89.80;;;;;;4980454;28;20450;-87
2022/10/04 08:54:44;;;;;;;38.33;21.10;;;10.50;89.80;;;;;;4975440;28;20510;-86
2022/10/04 08:57:14;;;;;;;37.23;21.13;;;10.50;89.80;;;;;;4975635;28;20455;-86
2022/10/04 08:59:48;;;;;;;36.43;20.93;;;10.50;89.80;;;;;;4993477;28;20450;-86
2022/10/04 09:02:50;;;;;;;41.67;22.87;;;10.40;89.80;;;;;;4970824;28;20474;-86
2022/10/04 09:05:40;;;;;;;38.90;22.03;;;10.50;89.80;;;;;;4881208;29;20492;-86
2022/10/04 09:08:22;;;;;;;36.03;19.70;;;10.60;89.80;;;;;;4974024;28;20681;-86
2022/10/04 09:11:20;;;;;;;35.00;21.17;;;10.60;89.80;;;;;;4973601;28;21013;-86
2022/10/04 09:13:46;;;;;;;36.77;21.30;;;10.60;89.80;;;;;;4976324;28;20536;-86
2022/10/04 09:16:22;;;;;;;35.17;22.07;;;10.60;89.80;;;;;;4958316;28;20463;-86
2022/10/04 09:18:59;;;;;;;41.97;22.60;;;10.60;89.80;;;;;;4976236;28;20902;-86
2022/10/04 09:21:27;;;;;;;34.10;21.17;;;10.80;89.80;;;;;;4960695;28;20459;-86
2022/10/04 09:24:08;;;;;;;36.63;22.07;;;10.90;89.80;;;;;;4970691;28;20445;-86
2022/10/04 09:26:50;;;;;;;33.63;20.43;;;10.90;89.80;;;;;;4958582;28;20462;-86
2022/10/04 09:29:55;;;;;;;38.97;21.27;;;10.90;89.80;;;;;;4969492;28;20567;-86
2022/10/04 09:33:00;;;;;;;37.23;21.60;;;10.90;89.80;;;;;;4959180;28;20454;-86
2022/10/04 09:35:45;;;;;;;33.87;20.17;;;11.10;89.80;;;;;;4973455;28;20469;-86
2022/10/04 09:38:34;;;;;;;35.63;21.97;;;11.10;89.80;;;;;;4971438;28;20474;-86
2022/10/04 09:41:26;;;;;;;33.30;20.77;;;11.10;89.80;;;;;;4968222;28;20447;-86
2022/10/04 09:44:02;;;;;;;34.30;20.70;;;11.10;89.80;;;;;;4972796;28;20458;-86
2022/10/04 09:47:02;;;;;;;33.83;19.90;;;11.20;89.80;;;;;;4971394;28;20510;-86
2022/10/04 09:49:36;;;;;;;30.70;19.43;;;11.30;89.80;;;;;;4973992;28;20529;-86
2022/10/04 09:52:15;;;;;;;31.33;18.90;;;11.40;89.80;;;;;;4958643;28;20453;-86
2022/10/04 09:55:06;;;;;;;30.83;19.80;;;11.50;89.80;;;;;;4967536;28;20498;-86
2022/10/04 09:57:44;;;;;;;30.33;17.43;;;11.60;89.20;;;;;;4972683;28;20470;-86
2022/10/04 10:00:19;;;;;;;37.23;19.00;;;11.60;89.20;;;;;;4955530;28;20466;-86
2022/10/04 10:03:18;;;;;;;31.33;19.73;;;11.70;89.00;;;;;;4973101;28;20834;-86
2022/10/04 10:06:05;;;;;;;33.17;20.43;;;11.80;88.70;;;;;;4964934;28;20466;-86
2022/10/04 10:08:59;;;;;;;33.77;19.43;;;11.90;88.50;;;;;;4973253;28;20462;-86
2022/10/04 10:15:18;;;;;;;32.00;18.80;;;12.00;87.90;;;;;;4951691;28;20502;-86
2022/10/04 10:18:14;;;;;;;28.27;16.90;;;12.10;87.60;;;;;;4971440;28;20482;-86
2022/10/04 10:20:58;;;;;;;24.43;17.30;;;12.20;87.60;;;;;;4956736;28;20447;-86
2022/10/04 10:24:06;;;;;;;26.03;14.93;;;12.30;87.30;;;;;;4971519;28;20463;-86
2022/10/04 10:26:49;;;;;;;25.70;16.23;;;12.30;87.10;;;;;;4972931;28;20462;-86
2022/10/04 10:29:26;;;;;;;23.97;15.60;;;12.40;87.00;;;;;;4958586;28;20578;-86
2022/10/04 10:32:03;;;;;;;26.50;14.73;;;12.60;87.00;;;;;;4960667;28;21028;-86
2022/10/04 10:34:51;;;;;;;26.70;15.23;;;12.70;86.20;;;;;;4971521;28;20482;-86
2022/10/04 10:37:26;;;;;;;21.83;14.17;;;12.90;85.90;;;;;;4969731;28;20513;-86
2022/10/04 10:40:19;;;;;;;22.53;14.07;;;12.80;85.60;;;;;;4958678;28;20506;-86
2022/10/04 10:43:21;;;;;;;19.50;13.17;;;12.90;85.60;;;;;;4948624;28;20462;-86
2022/10/04 10:46:05;;;;;;;29.33;16.13;;;12.90;85.40;;;;;;4958425;28;20432;-86
2022/10/04 10:49:02;;;;;;;24.00;15.30;;;12.90;85.20;;;;;;4959682;28;20454;-86
2022/10/04 10:51:34;;;;;;;25.90;14.90;;;12.90;85.40;;;;;;4974047;28;20517;-86
2022/10/04 10:54:24;;;;;;;23.07;14.30;;;12.90;85.50;;;;;;4956936;28;20541;-86
2022/10/04 10:56:59;;;;;;;24.50;13.83;;;12.90;85.50;;;;;;4957042;28;20530;-86
2022/10/04 10:59:48;;;;;;;23.90;15.27;;;12.90;85.70;;;;;;4974144;28;20517;-86
2022/10/04 11:02:35;;;;;;;21.37;14.50;;;13.00;85.90;;;;;;4958067;28;20501;-86
2022/10/04 11:05:56;;;;;;;24.40;12.57;;;13.20;85.40;;;;;;4960053;28;20981;-86
2022/10/04 11:08:28;;;;;;;17.47;12.23;;;13.20;84.80;;;;;;4973555;28;20900;-85
2022/10/04 11:11:38;;;;;;;14.93;10.70;;;13.20;84.70;;;;;;4958161;28;20485;-85
2022/10/04 11:14:35;;;;;;;11.10;7.03;;;13.20;84.50;;;;;;4958153;28;20482;-86
2022/10/04 11:17:26;;;;;;;12.70;8.33;;;13.10;83.60;;;;;;4958412;28;20482;-86
2022/10/04 11:20:16;;;;;;;11.87;7.80;;;13.20;83.70;;;;;;4974605;28;20461;-86
2022/10/04 11:23:24;;;;;;;11.57;7.23;;;13.20;83.20;;;;;;4975538;28;20478;-86
2022/10/04 11:26:09;;;;;;;16.67;8.37;;;13.20;83.30;;;;;;4856680;29;20495;-86
2022/10/04 11:28:38;;;;;;;12.93;8.70;;;13.20;83.20;;;;;;4873841;29;20462;-86
2022/10/04 11:31:11;;;;;;;9.37;7.40;;;13.20;82.80;;;;;;4923883;28;20474;-86
2022/10/04 11:34:10;;;;;;;14.20;8.70;;;13.20;82.90;;;;;;4975804;28;20505;-86
2022/10/04 11:37:19;;;;;;;12.67;8.93;;;13.30;83.00;;;;;;4959912;28;20442;-86
2022/10/04 11:40:10;;;;;;;12.80;8.43;;;13.40;82.80;;;;;;4970262;28;20509;-86
2022/10/04 11:43:14;;;;;;;10.97;8.37;;;13.40;82.90;;;;;;4975864;28;20458;-86
2022/10/04 11:46:19;;;;;;;12.33;7.00;;;13.40;82.90;;;;;;4957307;28;20469;-86
2022/10/04 11:49:13;;;;;;;9.50;7.23;;;13.50;82.80;;;;;;4961889;28;20470;-90
2022/10/04 11:51:59;;;;;;;11.67;7.00;;;13.50;82.80;;;;;;4960890;28;20797;-85
2022/10/04 11:55:20;;;;;;;13.43;7.80;;;13.50;82.80;;;;;;4977445;28;20537;-86
2022/10/04 11:57:53;;;;;;;9.83;8.00;;;13.50;82.90;;;;;;4923096;29;20456;-86
2022/10/04 12:00:23;;;;;;;13.37;7.43;;;13.60;82.90;;;;;;4926782;29;20962;-86
2022/10/04 12:03:20;;;;;;;9.90;7.30;;;13.60;82.70;;;;;;4961930;28;20489;-86
2022/10/04 12:05:54;;;;;;;10.90;8.00;;;13.60;82.70;;;;;;4974844;28;20496;-86
2022/10/04 12:08:42;;;;;;;12.97;8.90;;;13.70;82.80;;;;;;4961310;28;20497;-86
2022/10/04 12:14:52;;;;;;;13.33;7.33;;;13.70;82.90;;;;;;4942968;28;20556;-86
2022/10/04 12:17:37;;;;;;;10.37;7.17;;;13.80;82.90;;;;;;4962332;28;20486;-86
2022/10/04 12:20:16;;;;;;;18.27;8.40;;;13.80;82.90;;;;;;4962606;28;20466;-86
2022/10/04 12:23:21;;;;;;;11.63;7.90;;;13.80;83.10;;;;;;4980151;28;20913;-87
2022/10/04 12:26:09;;;;;;;9.57;7.37;;;13.90;82.90;;;;;;4963002;28;20462;-86
2022/10/04 12:28:39;;;;;;;18.27;7.80;;;13.90;82.60;;;;;;4977127;28;20474;-86
2022/10/04 12:31:23;;;;;;;10.40;7.43;;;13.90;82.30;;;;;;4979179;28;20461;-86
2022/10/04 12:34:13;;;;;;;10.20;6.90;;;14.00;82.50;;;;;;4979442;28;20829;-86
2022/10/04 12:37:11;;;;;;;9.33;7.07;;;14.00;82.40;;;;;;4963661;28;20847;-86
2022/10/04 12:39:50;;;;;;;9.53;6.97;;;14.10;82.20;;;;;;4950761;28;21086;-86
2022/10/04 12:42:31;;;;;;;10.87;7.07;;;14.10;82.20;;;;;;4961780;28;20524;-86
2022/10/04 12:45:23;;;;;;;9.37;5.90;;;14.10;82.10;;;;;;4974170;28;21035;-86
2022/10/04 12:48:21;;;;;;;10.30;7.83;;;14.10;82.20;;;;;;4961810;28;20462;-86
2022/10/04 12:51:18;;;;;;;10.73;6.27;;;14.20;81.80;;;;;;4972317;28;20482;-86
2022/10/04 12:54:12;;;;;;;9.37;6.60;;;14.20;81.60;;;;;;4978886;28;20572;-86
2022/10/04 12:56:51;;;;;;;11.20;6.40;;;14.30;81.30;;;;;;4942827;28;20466;-85
2022/10/04 12:59:24;;;;;;;8.80;5.80;;;14.30;81.10;;;;;;4961072;28;20512;-86
2022/10/04 13:02:08;;;;;;;9.03;6.00;;;14.40;81.10;;;;;;4980049;28;20466;-86
2022/10/04 13:04:53;;;;;;;9.10;6.73;;;14.40;81.00;;;;;;4963169;28;20461;-86
2022/10/04 13:07:25;;;;;;;8.80;6.37;;;14.50;80.80;;;;;;4979005;28;20981;-86
2022/10/04 13:10:15;;;;;;;12.40;7.30;;;14.50;80.50;;;;;;4977693;28;20470;-86
2022/10/04 13:12:54;;;;;;;12.10;8.00;;;14.60;80.70;;;;;;4978740;28;20466;-86
2022/10/04 13:15:28;;;;;;;10.90;7.33;;;14.60;80.60;;;;;;4961363;28;20630;-85
2022/10/04 13:18:33;;;;;;;10.37;7.07;;;14.60;80.50;;;;;;4981394;28;21041;-86
2022/10/04 13:21:00;;;;;;;8.93;6.07;;;14.70;80.40;;;;;;4979996;28;20469;-86
2022/10/04 13:23:39;;;;;;;8.60;6.60;;;14.70;80.30;;;;;;4963515;28;20511;-87
2022/10/04 13:26:19;;;;;;;8.60;7.40;;;14.70;80.20;;;;;;4980907;28;20465;-86
2022/10/04 13:29:01;;;;;;;12.30;7.53;;;14.70;79.90;;;;;;4964979;28;20470;-87
2022/10/04 13:31:57;;;;;;;10.80;7.50;;;14.80;79.90;;;;;;4976267;28;20470;-86
2022/10/04 13:34:39;;;;;;;12.60;8.27;;;14.80;80.00;;;;;;4958317;28;20494;-85
2022/10/04 13:37:34;;;;;;;9.77;7.50;;;14.90;79.80;;;;;;4979837;28;20463;-86
2022/10/04 13:40:23;;;;;;;9.37;8.27;;;14.90;78.40;;;;;;4965405;28;20878;-86
2022/10/04 13:43:27;;;;;;;11.63;8.77;;;14.90;78.70;;;;;;4979480;28;20462;-86
2022/10/04 13:46:06;;;;;;;15.77;9.03;;;14.90;78.80;;;;;;4960678;28;20497;-86
2022/10/04 13:48:55;;;;;;;13.83;10.77;;;14.90;79.30;;;;;;4978177;28;21561;-86
2022/10/04 13:51:37;;;;;;;14.83;10.00;;;15.00;79.70;;;;;;4955463;28;20462;-86
2022/10/04 13:57:36;;;;;;;17.93;11.30;;;15.00;79.80;;;;;;4977718;28;20501;-86
2022/10/04 14:00:09;;;;;;;14.40;9.63;;;15.00;80.00;;;;;;4976717;28;20497;-86
2022/10/04 14:03:10;;;;;;;18.67;12.63;;;15.10;79.80;;;;;;4962138;28;20508;-86
2022/10/04 14:05:51;;;;;;;16.40;10.43;;;15.10;79.90;;;;;;4963699;28;21018;-86
2022/10/04 14:08:49;;;;;;;11.33;9.20;;;15.10;79.80;;;;;;4978097;28;20465;-86
2022/10/04 14:11:29;;;;;;;15.20;9.00;;;15.20;79.60;;;;;;4979894;28;20520;-85
2022/10/04 14:14:36;;;;;;;12.80;10.00;;;15.20;79.60;;;;;;4964457;28;21145;-85
2022/10/04 14:17:21;;;;;;;12.00;9.97;;;15.30;79.50;;;;;;4979266;28;21040;-86